createdAt,value
2023-01-07T00:01:44.166Z,4.20
2023-01-07T00:04:15.708Z,3.87
2023-01-07T00:06:45.202Z,3.80
2023-01-07T00:09:17.545Z,3.80
2023-01-07T00:11:45.941Z,4.25
2023-01-07T00:14:14.926Z,3.85
2023-01-07T00:16:43.723Z,3.58
2023-01-07T00:19:17.014Z,4.12
2023-01-07T00:21:44.802Z,4.47
2023-01-07T00:24:13.059Z,3.70
2023-01-07T00:26:41.483Z,4.37
2023-01-07T00:29:10.052Z,3.60
2023-01-07T00:31:41.072Z,3.53
2023-01-07T00:34:12.091Z,4.05
2023-01-07T00:36:47.493Z,3.70
2023-01-07T00:39:18.193Z,3.90
2023-01-07T00:42:04.689Z,3.97
2023-01-07T00:44:33.295Z,3.62
2023-01-07T00:47:01.193Z,4.35
2023-01-07T00:49:29.009Z,4.07
2023-01-07T00:51:56.768Z,4.10
2023-01-07T00:54:25.096Z,4.00
2023-01-07T00:56:52.916Z,4.62
2023-01-07T00:59:20.757Z,4.95
2023-01-07T01:01:48.733Z,4.00
2023-01-07T01:04:16.545Z,4.10
2023-01-07T01:06:44.645Z,4.07
2023-01-07T01:09:12.396Z,4.37
2023-01-07T01:11:40.097Z,4.12
2023-01-07T01:14:07.797Z,4.20
2023-01-07T01:16:35.603Z,3.78
2023-01-07T01:19:03.401Z,3.97
2023-01-07T01:21:31.106Z,3.95
2023-01-07T01:23:58.768Z,4.28
2023-01-07T01:26:26.431Z,4.12
2023-01-07T01:28:54.151Z,4.03
2023-01-07T01:31:21.901Z,4.22
2023-01-07T01:33:49.682Z,3.85
2023-01-07T01:36:17.419Z,4.10
2023-01-07T01:38:45.115Z,4.40
2023-01-07T01:41:17.350Z,4.70
2023-01-07T01:43:48.507Z,4.60
2023-01-07T01:46:18.842Z,4.10
2023-01-07T01:48:52.467Z,4.00
2023-01-07T01:51:23.391Z,4.65
2023-01-07T01:53:52.242Z,5.72
2023-01-07T01:56:30.809Z,5.35
2023-01-07T01:59:03.916Z,5.72
2023-01-07T02:01:34.078Z,5.80
2023-01-07T02:04:05.744Z,6.43
2023-01-07T02:06:37.563Z,6.18
2023-01-07T02:09:05.966Z,6.12
2023-01-07T02:11:48.464Z,6.25
2023-01-07T02:14:34.247Z,6.30
2023-01-07T02:17:28.883Z,5.70
2023-01-07T02:20:08.994Z,5.80
2023-01-07T02:23:18.258Z,5.70
2023-01-07T02:26:08.808Z,5.97
2023-01-07T02:28:51.367Z,5.85
2023-01-07T02:32:06.443Z,5.53
2023-01-07T02:34:43.218Z,6.20
2023-01-07T02:37:16.629Z,5.78
2023-01-07T02:40:13.548Z,6.05
2023-01-07T02:42:58.478Z,5.50
2023-01-07T02:45:33.261Z,5.20
2023-01-07T02:48:09.415Z,5.15
2023-01-07T02:50:37.130Z,5.37
2023-01-07T02:53:06.589Z,5.20
2023-01-07T02:56:02.263Z,5.90
2023-01-07T02:58:51.740Z,5.95
2023-01-07T03:01:28.706Z,4.97
2023-01-07T03:04:07.625Z,5.55
2023-01-07T03:07:00.690Z,5.03
2023-01-07T03:09:38.732Z,5.25
2023-01-07T03:12:14.523Z,5.65
2023-01-07T03:14:48.361Z,5.10
2023-01-07T03:17:21.894Z,5.35
2023-01-07T03:19:56.123Z,5.68
2023-01-07T03:22:27.056Z,5.75
2023-01-07T03:24:57.909Z,4.32
2023-01-07T03:27:28.659Z,5.25
2023-01-07T03:29:57.200Z,5.43
2023-01-07T03:32:33.436Z,5.18
2023-01-07T03:35:01.276Z,4.60
2023-01-07T03:37:29.771Z,4.65
2023-01-07T03:39:58.490Z,4.80
2023-01-07T03:42:41.779Z,4.90
2023-01-07T03:45:21.971Z,5.10
2023-01-07T03:47:52.167Z,4.93
2023-01-07T03:50:21.097Z,4.78
2023-01-07T03:52:52.263Z,4.87
2023-01-07T03:55:20.470Z,5.07
2023-01-07T03:57:48.213Z,5.18
2023-01-07T04:00:16.953Z,5.12
2023-01-07T04:02:44.838Z,5.45
2023-01-07T04:05:12.686Z,5.28
2023-01-07T04:07:40.455Z,4.55
2023-01-07T04:10:09.861Z,5.22
2023-01-07T04:12:37.974Z,5.25
2023-01-07T04:15:06.786Z,5.05
2023-01-07T04:17:34.752Z,5.15
2023-01-07T04:20:02.440Z,5.57
2023-01-07T04:22:30.116Z,5.53
2023-01-07T04:24:59.037Z,5.30
2023-01-07T04:27:26.753Z,4.90
2023-01-07T04:29:54.485Z,5.60
2023-01-07T04:32:22.137Z,5.32
2023-01-07T04:34:49.734Z,5.60
2023-01-07T04:37:17.396Z,5.12
2023-01-07T04:39:45.088Z,5.15
2023-01-07T04:42:12.783Z,5.53
2023-01-07T04:44:40.500Z,6.93
2023-01-07T04:47:08.217Z,6.00
2023-01-07T04:49:35.936Z,6.25
2023-01-07T04:52:05.077Z,5.32
2023-01-07T04:54:32.842Z,6.00
2023-01-07T04:57:00.517Z,6.25
2023-01-07T04:59:28.219Z,6.43
2023-01-07T05:01:55.984Z,6.25
2023-01-07T05:04:23.876Z,6.00
2023-01-07T05:06:51.607Z,5.90
2023-01-07T05:09:19.310Z,6.18
2023-01-07T05:11:47.080Z,6.53
2023-01-07T05:14:14.817Z,6.50
2023-01-07T05:16:42.624Z,6.80
2023-01-07T05:19:11.776Z,6.10
2023-01-07T05:21:39.889Z,6.55
2023-01-07T05:24:07.763Z,6.65
2023-01-07T05:26:35.949Z,6.05
2023-01-07T05:29:03.796Z,6.43
2023-01-07T05:31:31.564Z,8.00
2023-01-07T05:33:59.284Z,7.62
2023-01-07T05:36:26.947Z,7.43
2023-01-07T05:38:54.691Z,6.40
2023-01-07T05:41:22.545Z,6.25
2023-01-07T05:43:50.639Z,6.20
2023-01-07T05:46:18.414Z,7.20
2023-01-07T05:48:46.097Z,6.70
2023-01-07T05:51:13.712Z,6.62
2023-01-07T05:53:41.409Z,6.93
2023-01-07T05:56:09.031Z,6.97
2023-01-07T05:58:36.727Z,6.72
2023-01-07T06:01:04.716Z,7.40
2023-01-07T06:03:32.599Z,6.82
2023-01-07T06:06:00.385Z,7.25
2023-01-07T06:08:28.107Z,7.40
2023-01-07T06:10:55.929Z,7.30
2023-01-07T06:13:23.663Z,7.57
2023-01-07T06:15:51.373Z,7.10
2023-01-07T06:18:19.245Z,7.20
2023-01-07T06:20:46.936Z,7.53
2023-01-07T06:23:14.741Z,7.28
2023-01-07T06:25:42.481Z,6.57
2023-01-07T06:28:10.208Z,7.32
2023-01-07T06:30:37.962Z,6.47
2023-01-07T06:33:08.919Z,6.40
2023-01-07T06:35:36.667Z,6.70
2023-01-07T06:38:04.473Z,6.75
2023-01-07T06:40:32.404Z,6.50
2023-01-07T06:43:00.107Z,6.37
2023-01-07T06:45:27.950Z,5.95
2023-01-07T06:47:58.384Z,6.35
2023-01-07T06:50:26.527Z,6.00
2023-01-07T06:52:54.397Z,6.62
2023-01-07T06:55:22.084Z,5.95
2023-01-07T06:57:49.909Z,5.90
2023-01-07T07:00:17.972Z,5.97
2023-01-07T07:02:45.743Z,6.25
2023-01-07T07:05:13.582Z,6.45
2023-01-07T07:07:41.387Z,6.35
2023-01-07T07:10:10.107Z,6.20
2023-01-07T07:12:39.073Z,5.93
2023-01-07T07:15:08.749Z,5.53
2023-01-07T07:17:36.578Z,6.07
2023-01-07T07:20:05.254Z,5.97
2023-01-07T07:22:32.963Z,5.65
2023-01-07T07:25:00.599Z,5.95
2023-01-07T07:27:28.430Z,6.53
2023-01-07T07:29:56.187Z,6.87
2023-01-07T07:32:29.367Z,6.72
2023-01-07T07:34:57.521Z,5.87
2023-01-07T07:37:25.225Z,6.00
2023-01-07T07:39:53.005Z,5.85
2023-01-07T07:42:20.676Z,5.97
2023-01-07T07:44:48.366Z,5.20
2023-01-07T07:47:16.049Z,5.28
2023-01-07T07:49:43.797Z,5.10
2023-01-07T07:52:11.569Z,5.37
2023-01-07T07:54:39.283Z,5.32
2023-01-07T07:57:07.080Z,5.18
2023-01-07T07:59:35.017Z,4.90
2023-01-07T08:02:03.125Z,5.20
2023-01-07T08:04:35.166Z,5.20
2023-01-07T08:07:03.308Z,4.68
2023-01-07T08:09:30.987Z,4.70
2023-01-07T08:11:58.744Z,4.82
2023-01-07T08:14:26.408Z,4.80
2023-01-07T08:16:54.260Z,4.75
2023-01-07T08:19:21.971Z,4.28
2023-01-07T08:21:50.280Z,5.20
2023-01-07T08:24:18.168Z,4.70
2023-01-07T08:26:45.820Z,4.87
2023-01-07T08:29:13.586Z,4.57
2023-01-07T08:31:41.311Z,4.43
2023-01-07T08:34:09.052Z,4.72
2023-01-07T08:36:36.741Z,4.37
2023-01-07T08:39:04.492Z,3.92
2023-01-07T08:41:32.229Z,4.30
2023-01-07T08:43:59.982Z,4.05
2023-01-07T08:46:27.722Z,4.35
2023-01-07T08:48:55.485Z,3.92
2023-01-07T08:51:23.167Z,4.20
2023-01-07T08:53:50.917Z,4.32
2023-01-07T08:56:18.649Z,3.70
2023-01-07T08:58:46.338Z,3.67
2023-01-07T09:01:14.116Z,4.03
2023-01-07T09:03:42.173Z,4.10
2023-01-07T09:06:10.178Z,4.22
2023-01-07T09:08:37.949Z,4.05
2023-01-07T09:11:05.721Z,4.43
2023-01-07T09:13:33.415Z,3.95
2023-01-07T09:16:01.376Z,4.00
2023-01-07T09:18:29.227Z,4.18
2023-01-07T09:20:56.916Z,4.50
2023-01-07T09:23:24.602Z,3.45
2023-01-07T09:25:52.290Z,4.28
2023-01-07T09:28:19.953Z,4.05
2023-01-07T09:30:47.702Z,3.85
2023-01-07T09:33:15.417Z,4.75
2023-01-07T09:35:43.165Z,4.55
2023-01-07T09:38:10.913Z,4.43
2023-01-07T09:40:41.263Z,4.03
2023-01-07T09:44:00.176Z,4.47
2023-01-07T09:46:25.177Z,4.95
2023-01-07T09:48:58.964Z,4.60
2023-01-07T09:51:33.546Z,4.00
2023-01-07T09:54:04.199Z,4.07
2023-01-07T09:56:34.476Z,4.60
2023-01-07T09:59:03.353Z,3.78
2023-01-07T10:01:34.031Z,3.78
2023-01-07T10:04:17.870Z,3.58
2023-01-07T10:06:52.463Z,3.53
2023-01-07T10:09:55.667Z,3.83
2023-01-07T10:12:23.357Z,3.70
2023-01-07T10:14:54.009Z,3.60
2023-01-07T10:17:30.696Z,3.72
2023-01-07T10:20:23.244Z,3.97
2023-01-07T10:23:12.821Z,3.22
2023-01-07T10:25:48.631Z,3.15
2023-01-07T10:28:21.750Z,2.92
2023-01-07T10:30:54.845Z,4.55
2023-01-07T10:33:30.814Z,3.95
2023-01-07T10:36:11.682Z,3.67
2023-01-07T10:38:43.461Z,4.15
2023-01-07T10:41:28.076Z,3.75
2023-01-07T10:44:03.944Z,4.03
2023-01-07T10:46:56.719Z,4.35
2023-01-07T10:49:39.184Z,4.60
2023-01-07T10:52:10.066Z,4.07
2023-01-07T10:55:25.960Z,4.45
2023-01-07T10:57:53.823Z,4.12
2023-01-07T11:00:21.736Z,4.60
2023-01-07T11:02:57.608Z,4.87
2023-01-07T11:05:29.636Z,3.95
2023-01-07T11:08:00.604Z,4.05
2023-01-07T11:10:37.626Z,4.37
2023-01-07T11:13:16.722Z,5.28
2023-01-07T11:15:53.720Z,4.95
2023-01-07T11:18:31.287Z,4.57
2023-01-07T11:21:00.640Z,4.70
2023-01-07T11:23:39.651Z,4.45
2023-01-07T11:26:24.437Z,4.18
2023-01-07T11:28:56.560Z,5.00
2023-01-07T11:31:45.372Z,5.18
2023-01-07T11:34:27.890Z,4.95
2023-01-07T11:36:55.927Z,5.43
2023-01-07T11:39:32.918Z,4.75
2023-01-07T11:42:38.914Z,4.75
2023-01-07T11:45:20.778Z,5.47
2023-01-07T11:48:09.796Z,5.87
2023-01-07T11:50:39.427Z,4.68
2023-01-07T11:53:29.043Z,5.43
2023-01-07T11:56:07.422Z,4.70
2023-01-07T11:58:38.975Z,4.95
2023-01-07T12:01:06.810Z,4.65
2023-01-07T12:03:36.127Z,4.55
2023-01-07T12:06:34.656Z,4.60
2023-01-07T12:09:23.884Z,5.43
2023-01-07T12:11:53.630Z,4.97
2023-01-07T12:14:40.351Z,5.18
2023-01-07T12:17:12.651Z,4.87
2023-01-07T12:20:09.335Z,4.43
2023-01-07T12:22:50.146Z,4.57
2023-01-07T12:25:36.117Z,4.53
2023-01-07T12:28:14.780Z,4.05
2023-01-07T12:31:12.881Z,5.30
2023-01-07T12:34:05.871Z,4.93
2023-01-07T12:36:44.094Z,5.35
2023-01-07T12:39:32.220Z,4.22
2023-01-07T12:42:06.189Z,5.82
2023-01-07T12:44:37.835Z,5.30
2023-01-07T12:47:31.056Z,5.47
2023-01-07T12:50:36.486Z,4.95
2023-01-07T12:53:18.045Z,4.57
2023-01-07T12:55:51.257Z,5.30
2023-01-07T12:58:47.517Z,5.53
2023-01-07T13:01:21.953Z,5.00
2023-01-07T13:04:08.291Z,4.85
2023-01-07T13:06:39.488Z,5.57
2023-01-07T13:09:23.313Z,5.07
2023-01-07T13:12:40.937Z,5.25
2023-01-07T13:15:10.980Z,4.78
2023-01-07T13:17:38.670Z,5.03
2023-01-07T13:20:19.232Z,5.32
2023-01-07T13:22:56.050Z,4.65
2023-01-07T13:26:02.255Z,4.80
2023-01-07T13:28:39.729Z,4.82
2023-01-07T13:31:19.702Z,4.65
2023-01-07T13:34:44.489Z,5.07
2023-01-07T13:37:43.869Z,7.62
2023-01-07T13:40:27.062Z,6.75
2023-01-07T13:43:13.180Z,5.43
2023-01-07T13:45:42.353Z,5.53
2023-01-07T13:48:23.503Z,5.32
2023-01-07T13:50:58.680Z,5.60
2023-01-07T13:53:26.355Z,5.22
2023-01-07T13:56:19.787Z,5.32
2023-01-07T13:58:50.994Z,5.15
2023-01-07T14:01:29.621Z,5.45
2023-01-07T14:03:59.822Z,4.55
2023-01-07T14:06:30.551Z,5.12
2023-01-07T14:09:35.047Z,4.37
2023-01-07T14:12:33.431Z,5.40
2023-01-07T14:15:16.447Z,4.47
2023-01-07T14:18:02.854Z,4.70
2023-01-07T14:20:52.653Z,4.60
2023-01-07T14:23:29.525Z,5.20
2023-01-07T14:26:26.334Z,4.87
2023-01-07T14:29:35.885Z,5.28
2023-01-07T14:32:33.162Z,5.40
2023-01-07T14:35:08.002Z,5.28
2023-01-07T14:37:49.644Z,5.07
2023-01-07T14:40:50.781Z,5.82
2023-01-07T14:43:46.655Z,5.30
2023-01-07T14:46:23.592Z,4.78
2023-01-07T14:49:03.489Z,5.53
2023-01-07T14:51:55.439Z,5.97
2023-01-07T14:54:48.616Z,5.55
2023-01-07T14:57:22.311Z,5.60
2023-01-07T15:00:27.822Z,5.30
2023-01-07T15:03:15.138Z,6.37
2023-01-07T15:06:04.357Z,5.37
2023-01-07T15:09:07.787Z,5.85
2023-01-07T15:11:55.840Z,5.43
2023-01-07T15:14:51.847Z,5.28
2023-01-07T15:17:20.108Z,5.85
2023-01-07T15:19:47.816Z,6.40
2023-01-07T15:22:37.458Z,5.80
2023-01-07T15:25:33.481Z,5.43
2023-01-07T15:28:14.281Z,5.12
2023-01-07T15:30:56.465Z,5.43
2023-01-07T15:33:40.180Z,5.30
2023-01-07T15:36:12.416Z,6.03
2023-01-07T15:38:49.588Z,5.78
2023-01-07T15:41:26.768Z,6.07
2023-01-07T15:43:54.917Z,5.78
2023-01-07T15:46:24.233Z,6.60
2023-01-07T15:49:10.013Z,6.18
2023-01-07T15:51:42.754Z,5.22
2023-01-07T15:54:29.395Z,5.53
2023-01-07T15:57:01.741Z,5.50
2023-01-07T15:59:33.172Z,6.12
2023-01-07T16:02:27.153Z,6.12
2023-01-07T16:04:59.816Z,5.78
2023-01-07T16:07:50.626Z,6.47
2023-01-07T16:10:23.833Z,6.03
2023-01-07T16:12:54.347Z,5.82
2023-01-07T16:15:23.149Z,6.07
2023-01-07T16:17:56.367Z,6.45
2023-01-07T16:20:37.333Z,6.37
2023-01-07T16:23:11.349Z,5.93
2023-01-07T16:25:45.297Z,6.35
2023-01-07T16:28:23.416Z,6.37
2023-01-07T16:30:53.094Z,6.65
2023-01-07T16:33:24.320Z,5.95
2023-01-07T16:35:56.522Z,6.45
2023-01-07T16:38:25.003Z,6.43
2023-01-07T16:40:53.580Z,6.75
2023-01-07T16:43:41.447Z,6.32
2023-01-07T16:46:24.580Z,6.37
2023-01-07T16:49:10.917Z,6.10
2023-01-07T16:51:46.141Z,5.80
2023-01-07T16:54:25.880Z,6.25
2023-01-07T16:57:02.731Z,6.65
2023-01-07T16:59:36.171Z,5.55
2023-01-07T17:02:32.275Z,5.93
2023-01-07T17:05:19.541Z,6.03
2023-01-07T17:07:54.679Z,5.75
2023-01-07T17:10:37.499Z,6.05
2023-01-07T17:13:06.701Z,5.55
2023-01-07T17:15:38.133Z,5.75
2023-01-07T17:18:17.673Z,5.72
2023-01-07T17:20:51.603Z,5.90
2023-01-07T17:23:43.321Z,6.10
2023-01-07T17:26:30.332Z,5.90
2023-01-07T17:29:14.019Z,6.43
2023-01-07T17:31:41.876Z,6.62
2023-01-07T17:34:17.174Z,6.47
2023-01-07T17:36:44.995Z,7.05
2023-01-07T17:39:13.032Z,7.78
2023-01-07T17:41:59.183Z,7.47
2023-01-07T17:44:26.998Z,8.23
2023-01-07T17:46:54.681Z,7.28
2023-01-07T17:49:22.597Z,7.45
2023-01-07T17:51:52.201Z,6.95
2023-01-07T17:54:24.796Z,6.72
2023-01-07T17:56:53.488Z,7.60
2023-01-07T17:59:23.880Z,7.97
2023-01-07T18:01:54.028Z,7.60
2023-01-07T18:04:22.653Z,8.95
2023-01-07T18:06:50.382Z,9.52
2023-01-07T18:09:18.084Z,8.30
2023-01-07T18:12:05.995Z,8.38
2023-01-07T18:14:33.821Z,7.12
2023-01-07T18:17:01.673Z,7.72
2023-01-07T18:19:29.392Z,7.57
2023-01-07T18:21:57.125Z,7.65
2023-01-07T18:24:25.112Z,7.68
2023-01-07T18:26:55.078Z,7.40
2023-01-07T18:29:24.034Z,7.45
2023-01-07T18:31:51.832Z,7.50
2023-01-07T18:34:19.777Z,7.70
2023-01-07T18:36:47.948Z,7.97
2023-01-07T18:39:19.520Z,7.03
2023-01-07T18:41:51.155Z,7.43
2023-01-07T18:44:20.517Z,7.60
2023-01-07T18:46:48.598Z,7.35
2023-01-07T18:49:16.329Z,7.82
2023-01-07T18:51:46.176Z,8.05
2023-01-07T18:54:13.914Z,7.43
2023-01-07T18:56:41.635Z,8.02
2023-01-07T18:59:10.395Z,7.68
2023-01-07T19:01:38.179Z,7.70
2023-01-07T19:04:07.689Z,8.00
2023-01-07T19:06:35.502Z,8.20
2023-01-07T19:09:03.192Z,8.48
2023-01-07T19:11:31.005Z,8.57
2023-01-07T19:13:58.715Z,8.60
2023-01-07T19:16:26.533Z,9.13
2023-01-07T19:18:54.313Z,8.63
2023-01-07T19:21:22.542Z,9.35
2023-01-07T19:23:50.389Z,9.68
2023-01-07T19:26:18.104Z,9.75
2023-01-07T19:28:46.220Z,8.77
2023-01-07T19:31:14.763Z,10.25
2023-01-07T19:33:42.561Z,11.55
2023-01-07T19:36:12.419Z,9.75
2023-01-07T19:38:47.421Z,9.85
2023-01-07T19:41:18.200Z,9.27
2023-01-07T19:43:47.540Z,9.27
2023-01-07T19:46:16.617Z,8.40
2023-01-07T19:48:44.859Z,7.70
2023-01-07T19:51:12.672Z,8.52
2023-01-07T19:53:40.856Z,8.63
2023-01-07T19:56:11.361Z,8.43
2023-01-07T19:58:40.197Z,8.73
2023-01-07T20:01:13.861Z,9.18
2023-01-07T20:03:41.660Z,8.48
2023-01-07T20:06:12.533Z,9.00
2023-01-07T20:11:09.285Z,9.82
2023-01-07T20:13:38.685Z,10.27
2023-01-07T20:16:06.713Z,10.05
2023-01-07T20:18:46.257Z,10.95
2023-01-07T20:21:16.943Z,10.13
2023-01-07T20:23:45.461Z,10.52
2023-01-07T20:26:16.808Z,9.85
2023-01-07T20:28:44.779Z,8.98
2023-01-07T20:31:15.700Z,9.85
2023-01-07T20:33:45.924Z,9.82
2023-01-07T20:36:17.101Z,10.02
2023-01-07T20:38:46.529Z,10.10
2023-01-07T20:41:17.229Z,9.90
2023-01-07T20:43:45.076Z,8.82
2023-01-07T20:46:12.897Z,9.15
2023-01-07T20:48:41.180Z,9.40
2023-01-07T20:51:13.318Z,11.15
2023-01-07T20:53:41.439Z,10.40
2023-01-07T20:56:09.472Z,9.27
2023-01-07T20:58:38.714Z,9.20
2023-01-07T21:01:10.224Z,14.07
2023-01-07T21:03:39.532Z,12.95
2023-01-07T21:06:09.956Z,10.82
2023-01-07T21:08:38.442Z,11.40
2023-01-07T21:13:57.227Z,11.90
2023-01-07T21:16:25.874Z,9.93
2023-01-07T21:18:53.636Z,10.30
2023-01-07T21:21:26.156Z,10.32
2023-01-07T21:23:55.315Z,10.45
2023-01-07T21:26:23.903Z,10.60
2023-01-07T21:28:56.743Z,9.93
2023-01-07T21:31:25.075Z,10.02
2023-01-07T21:33:56.725Z,9.75
2023-01-07T21:36:25.878Z,10.80
2023-01-07T21:38:56.322Z,11.82
2023-01-07T21:41:25.348Z,10.50
2023-01-07T21:43:53.174Z,10.60
2023-01-07T21:46:23.527Z,11.07
2023-01-07T21:48:53.105Z,11.18
2023-01-07T21:51:23.722Z,10.05
2023-01-07T21:53:56.681Z,12.05
2023-01-07T21:56:26.614Z,10.50
2023-01-07T21:58:54.428Z,11.75
2023-01-07T22:01:22.644Z,11.70
2023-01-07T22:03:50.745Z,11.30
2023-01-07T22:06:24.202Z,11.10
2023-01-07T22:08:56.407Z,10.25
